Time;durP1;ratioP1;P1;durP2;ratioP2;P2;SDS_P1;SDS_P2;PMS_P1;PMS_P2;Temp;Humidity;BMP_temperature;BMP_pressure;BME280_temperature;BME280_humidity;BME280_pressure;Samples;Min_cycle;Max_cycle;Signal;HPM_P1;HPM_P2
2021/01/01 00:01:33;;;;;;;13.90;11.73;;;;;;;0.01;100.00;96836.00;5028975;28;20509;-72
2021/01/01 00:04:00;;;;;;;13.23;11.93;;;;;;;0.11;100.00;96830.81;5030783;28;20209;-72
2021/01/01 00:06:27;;;;;;;14.20;12.73;;;;;;;0.17;100.00;96832.91;5031136;28;20228;-71
2021/01/01 00:08:55;;;;;;;14.50;13.07;;;;;;;0.20;100.00;96834.44;5029538;28;20243;-72
2021/01/01 00:11:23;;;;;;;13.00;11.70;;;;;;;0.39;100.00;96833.75;5033347;28;20629;-72
2021/01/01 00:13:50;;;;;;;15.67;14.07;;;;;;;0.46;100.00;96842.69;5036373;28;20208;-72
2021/01/01 00:16:18;;;;;;;17.27;14.40;;;;;;;0.47;100.00;96846.16;5037782;28;20339;-73
2021/01/01 00:18:46;;;;;;;19.33;17.23;;;;;;;0.38;100.00;96838.16;5038421;28;20219;-72
2021/01/01 00:21:13;;;;;;;18.13;15.67;;;;;;;0.42;100.00;96844.75;5038240;28;20235;-72
2021/01/01 00:23:40;;;;;;;18.73;14.87;;;;;;;0.40;100.00;96836.25;5030017;28;20665;-72
2021/01/01 00:26:11;;;;;;;16.37;14.67;;;;;;;0.36;100.00;96837.41;5033175;28;20696;-71
2021/01/01 00:28:42;;;;;;;16.23;14.63;;;;;;;0.37;100.00;96840.88;5034858;28;20711;-70
2021/01/01 00:31:14;;;;;;;13.27;11.80;;;;;;;0.46;100.00;96840.09;5038833;28;20655;-71
2021/01/01 00:33:41;;;;;;;12.77;11.47;;;;;;;0.51;100.00;96837.09;5038334;28;20672;-72
2021/01/01 00:36:09;;;;;;;11.10;9.90;;;;;;;0.44;100.00;96831.56;5040532;28;20215;-73
2021/01/01 00:38:37;;;;;;;11.23;10.17;;;;;;;0.43;100.00;96829.94;5031608;28;20207;-73
2021/01/01 00:41:07;;;;;;;10.33;9.43;;;;;;;0.39;100.00;96825.94;5024942;28;20224;-72
2021/01/01 00:43:34;;;;;;;10.40;9.50;;;;;;;0.40;100.00;96831.03;5031069;28;20201;-72
2021/01/01 00:46:01;;;;;;;10.23;9.43;;;;;;;0.37;100.00;96820.03;5029449;28;20224;-72
2021/01/01 00:48:28;;;;;;;10.67;9.67;;;;;;;0.25;100.00;96821.88;5036509;28;20211;-73
2021/01/01 00:50:55;;;;;;;11.73;10.20;;;;;;;0.15;100.00;96816.59;5032150;28;20204;-72
2021/01/01 00:53:40;;;;;;;10.60;9.57;;;;;;;0.01;100.00;96820.34;5038041;28;20245;-70
2021/01/01 00:56:07;;;;;;;11.07;9.97;;;;;;;0.11;100.00;96830.81;5039310;28;20210;-74
2021/01/01 00:58:34;;;;;;;12.37;10.47;;;;;;;0.05;100.00;96829.56;5032264;28;20209;-73
2021/01/01 01:01:01;;;;;;;13.23;11.93;;;;;;;0.02;100.00;96829.81;5034602;28;20227;-71
2021/01/01 01:03:28;;;;;;;13.80;11.20;;;;;;;0.05;100.00;96840.00;5035023;28;20204;-72
2021/01/01 01:05:55;;;;;;;13.60;12.07;;;;;;;-0.01;100.00;96832.66;5036472;28;20595;-72
2021/01/01 01:08:22;;;;;;;13.37;11.23;;;;;;;-0.07;100.00;96839.22;5030429;28;20208;-72
2021/01/01 01:10:50;;;;;;;11.33;10.23;;;;;;;-0.21;100.00;96834.28;5036256;28;20211;-74
2021/01/01 01:13:17;;;;;;;11.77;10.60;;;;;;;-0.10;100.00;96842.06;5032519;28;20205;-73
2021/01/01 01:15:44;;;;;;;12.23;10.93;;;;;;;-0.12;100.00;96843.97;5039574;28;20200;-72
2021/01/01 01:18:11;;;;;;;11.00;9.90;;;;;;;-0.27;100.00;96853.00;5037543;28;20203;-72
2021/01/01 01:20:38;;;;;;;11.50;10.20;;;;;;;-0.38;100.00;96841.69;5029717;28;20228;-70
2021/01/01 01:23:05;;;;;;;11.87;10.70;;;;;;;-0.09;100.00;96850.69;5027736;28;20220;-73
2021/01/01 01:25:32;;;;;;;13.47;11.57;;;;;;;-0.07;100.00;96849.63;5030416;28;20235;-73
2021/01/01 01:28:00;;;;;;;12.47;10.83;;;;;;;0.24;100.00;96844.50;5034808;28;20234;-72
2021/01/01 01:30:27;;;;;;;13.03;11.63;;;;;;;0.09;100.00;96856.19;5034586;28;20231;-71
2021/01/01 01:32:54;;;;;;;23.97;16.33;;;;;;;0.14;100.00;96851.41;5037495;28;20295;-73
2021/01/01 01:35:21;;;;;;;57.60;31.13;;;;;;;0.04;100.00;96850.53;5031906;28;20334;-73
2021/01/01 01:37:48;;;;;;;36.67;19.43;;;;;;;0.07;100.00;96858.09;5030093;28;20719;-73
2021/01/01 01:40:16;;;;;;;27.23;18.07;;;;;;;0.02;100.00;96865.44;5028254;28;20224;-73
2021/01/01 01:42:43;;;;;;;16.20;14.50;;;;;;;0.04;100.00;96871.38;5035710;28;20893;-73
2021/01/01 01:45:12;;;;;;;15.27;13.67;;;;;;;0.07;100.00;96871.09;5033898;28;20209;-72
2021/01/01 01:47:40;;;;;;;13.57;12.23;;;;;;;0.22;100.00;96877.69;5040951;28;20218;-70
2021/01/01 01:50:08;;;;;;;12.90;11.70;;;;;;;0.22;100.00;96877.69;5030745;28;20232;-72
2021/01/01 01:52:35;;;;;;;13.17;11.87;;;;;;;0.31;100.00;96878.69;5028849;28;20265;-73
2021/01/01 01:55:03;;;;;;;14.47;13.00;;;;;;;0.17;100.00;96879.81;5021891;28;20228;-73
2021/01/01 01:57:31;;;;;;;12.90;11.67;;;;;;;0.31;100.00;96888.28;5033649;28;20322;-73
2021/01/01 02:00:07;;;;;;;11.87;10.70;;;;;;;0.30;100.00;96899.69;5024111;28;20228;-72
2021/01/01 02:02:35;;;;;;;12.87;11.67;;;;;;;0.19;100.00;96890.13;5033847;28;20222;-73
2021/01/01 02:05:02;;;;;;;15.50;14.00;;;;;;;0.28;100.00;96892.81;5027858;28;20228;-73
2021/01/01 02:07:29;;;;;;;14.97;13.37;;;;;;;0.34;100.00;96899.28;5031764;28;20319;-73
2021/01/01 02:09:56;;;;;;;11.93;10.87;;;;;;;0.47;100.00;96898.28;5035901;22;20379;-70
2021/01/01 02:12:23;;;;;;;12.20;10.90;;;;;;;0.29;100.00;96896.22;5016482;28;20212;-69
2021/01/01 02:14:51;;;;;;;11.83;10.73;;;;;;;0.30;100.00;96890.06;5016889;28;20204;-70
2021/01/01 02:17:18;;;;;;;11.60;10.40;;;;;;;0.27;100.00;96891.16;5016841;28;20205;-71
2021/01/01 02:19:46;;;;;;;11.47;10.27;;;;;;;0.33;100.00;96897.63;5015071;28;20411;-71
2021/01/01 02:22:13;;;;;;;11.07;9.97;;;;;;;0.37;100.00;96893.81;5014137;28;20677;-70
2021/01/01 02:24:40;;;;;;;9.90;9.07;;;;;;;0.37;100.00;96893.00;5012365;28;20672;-71
2021/01/01 02:27:07;;;;;;;9.87;8.80;;;;;;;0.41;100.00;96889.19;5011831;28;20716;-70
2021/01/01 02:29:34;;;;;;;10.23;9.23;;;;;;;0.47;100.00;96888.66;5019156;28;20613;-70
2021/01/01 02:32:01;;;;;;;9.93;9.03;;;;;;;0.25;100.00;96884.41;5017101;28;20215;-70
2021/01/01 02:34:28;;;;;;;9.30;8.37;;;;;;;0.21;100.00;96880.41;5008334;28;20211;-70
2021/01/01 02:36:55;;;;;;;10.57;9.57;;;;;;;0.26;100.00;96886.91;5015785;28;20238;-70
2021/01/01 02:39:23;;;;;;;8.73;8.13;;;;;;;0.15;100.00;96889.53;5009196;28;20244;-70
2021/01/01 02:41:50;;;;;;;9.70;8.80;;;;;;;0.28;100.00;96887.59;5004581;28;20209;-69
2021/01/01 02:44:18;;;;;;;8.13;7.53;;;;;;;0.34;100.00;96893.25;5014267;28;20665;-70
2021/01/01 02:46:45;;;;;;;9.27;8.43;;;;;;;0.20;100.00;96892.63;5018503;28;20220;-70
2021/01/01 02:49:12;;;;;;;8.63;7.60;;;;;;;0.14;100.00;96895.69;5017772;28;20225;-70
2021/01/01 02:51:39;;;;;;;8.50;7.80;;;;;;;0.39;100.00;96897.16;5008531;28;20235;-69
2021/01/01 02:54:07;;;;;;;8.70;7.90;;;;;;;0.31;100.00;96896.13;5018132;28;20376;-69
2021/01/01 02:56:34;;;;;;;8.90;8.00;;;;;;;0.36;100.00;96897.38;5007078;28;20204;-69
2021/01/01 02:59:01;;;;;;;9.37;8.47;;;;;;;0.34;100.00;96895.84;5014388;28;20731;-69
2021/01/01 03:01:28;;;;;;;8.53;7.83;;;;;;;0.38;100.00;96895.50;5015170;28;20471;-69
2021/01/01 03:03:55;;;;;;;8.83;7.97;;;;;;;0.42;100.00;96903.88;5015749;28;21291;-69
2021/01/01 03:06:22;;;;;;;10.17;9.13;;;;;;;0.59;100.00;96906.88;5010584;28;20228;-70
2021/01/01 03:08:49;;;;;;;7.67;7.07;;;;;;;0.50;100.00;96892.81;5007743;28;20612;-70
2021/01/01 03:11:17;;;;;;;8.60;7.80;;;;;;;0.41;100.00;96889.19;5012661;28;20243;-70
2021/01/01 03:13:44;;;;;;;9.73;8.63;;;;;;;0.28;100.00;96887.59;5008612;28;20211;-69
2021/01/01 03:16:12;;;;;;;8.90;8.10;;;;;;;0.21;100.00;96883.84;5016090;28;20204;-70
2021/01/01 03:18:39;;;;;;;8.87;8.13;;;;;;;0.22;100.00;96879.44;5006749;28;20664;-69
2021/01/01 03:21:06;;;;;;;8.67;7.97;;;;;;;0.19;100.00;96880.53;5016691;28;20211;-70
2021/01/01 03:23:33;;;;;;;9.73;8.83;;;;;;;0.35;100.00;96881.88;5009407;28;20276;-70
2021/01/01 03:26:00;;;;;;;10.13;9.10;;;;;;;0.27;100.00;96879.91;5013635;28;20616;-70
2021/01/01 03:28:27;;;;;;;9.70;8.70;;;;;;;0.14;100.00;96882.69;5013268;28;20661;-70
2021/01/01 03:30:55;;;;;;;9.67;8.70;;;;;;;0.17;100.00;96882.41;5009169;28;20197;-70
2021/01/01 03:33:22;;;;;;;9.20;8.40;;;;;;;0.31;100.00;96883.09;5017206;28;20603;-70
2021/01/01 03:35:49;;;;;;;8.67;7.97;;;;;;;0.25;100.00;96880.03;5010104;28;20201;-70
2021/01/01 03:38:16;;;;;;;9.97;9.07;;;;;;;0.06;100.00;96879.88;5012305;28;20572;-70
2021/01/01 03:40:43;;;;;;;8.70;8.00;;;;;;;-0.02;100.00;96876.13;5010804;28;20457;-69
2021/01/01 03:43:10;;;;;;;9.70;8.90;;;;;;;-0.06;100.00;96874.72;5016568;28;20219;-69
2021/01/01 03:45:37;;;;;;;9.90;9.00;;;;;;;-0.13;100.00;96878.78;5015741;28;20369;-70
2021/01/01 03:48:06;;;;;;;9.10;8.23;;;;;;;-0.18;100.00;96873.13;5017660;28;20212;-70
2021/01/01 03:50:33;;;;;;;9.40;8.60;;;;;;;-0.08;100.00;96878.41;5008111;28;20225;-70
2021/01/01 03:53:00;;;;;;;9.80;8.90;;;;;;;0.06;100.00;96883.31;5015600;28;20208;-70
2021/01/01 03:55:27;;;;;;;9.30;8.50;;;;;;;0.12;100.00;96884.59;5011680;28;20229;-70
2021/01/01 03:57:54;;;;;;;9.77;8.83;;;;;;;0.23;100.00;96897.56;5016531;28;20638;-70
2021/01/01 04:00:22;;;;;;;8.43;7.73;;;;;;;0.24;100.00;96898.38;5013805;28;20232;-70
2021/01/01 04:02:49;;;;;;;9.40;8.60;;;;;;;0.07;100.00;96899.75;5015165;28;20208;-70
2021/01/01 04:05:17;;;;;;;8.97;8.13;;;;;;;0.30;100.00;96897.06;5017412;28;20204;-70
2021/01/01 04:07:44;;;;;;;9.17;8.37;;;;;;;0.23;100.00;96891.53;5008983;28;20361;-70
2021/01/01 04:10:11;;;;;;;9.03;7.93;;;;;;;0.34;100.00;96891.47;5014641;28;20237;-69
2021/01/01 04:12:39;;;;;;;9.60;8.80;;;;;;;0.42;100.00;96885.63;5015488;28;20211;-67
2021/01/01 04:15:07;;;;;;;8.30;7.60;;;;;;;0.37;100.00;96893.81;5016316;28;20204;-69
2021/01/01 04:17:34;;;;;;;9.13;8.23;;;;;;;0.39;100.00;96885.88;5015800;28;20210;-68
2021/01/01 04:20:01;;;;;;;9.57;8.77;;;;;;;0.48;100.00;96892.13;5011038;28;20228;-68
2021/01/01 04:22:29;;;;;;;8.93;8.13;;;;;;;0.48;100.00;96897.31;5012531;28;20204;-71
2021/01/01 04:24:56;;;;;;;9.77;8.77;;;;;;;0.39;100.00;96893.69;5008782;28;20593;-71
2021/01/01 04:27:23;;;;;;;8.70;7.90;;;;;;;0.18;100.00;96896.28;5020569;28;20234;-71
2021/01/01 04:29:50;;;;;;;9.27;8.47;;;;;;;0.24;100.00;96901.00;5007875;28;20244;-71
2021/01/01 04:32:17;;;;;;;8.73;8.03;;;;;;;0.25;100.00;96898.28;5011773;28;21199;-71
2021/01/01 04:34:44;;;;;;;9.60;8.73;;;;;;;0.23;100.00;96901.94;5010903;28;20248;-71
2021/01/01 04:37:11;;;;;;;8.73;8.03;;;;;;;0.14;100.00;96916.53;5013357;28;20228;-70
2021/01/01 04:39:38;;;;;;;10.00;8.60;;;;;;;0.18;100.00;96909.31;5010065;28;20228;-72
2021/01/01 04:42:06;;;;;;;9.30;8.40;;;;;;;0.29;100.00;96917.06;5011880;28;20448;-71
2021/01/01 04:44:33;;;;;;;9.47;8.63;;;;;;;0.49;100.00;96919.84;5012151;28;20228;-71
2021/01/01 04:47:03;;;;;;;9.40;8.50;;;;;;;0.21;100.00;96916.88;5008019;28;20239;-71
2021/01/01 04:49:32;;;;;;;9.13;8.20;;;;;;;0.20;100.00;96921.28;5008323;28;20236;-71
2021/01/01 04:52:02;;;;;;;9.87;8.97;;;;;;;0.35;100.00;96920.97;5014731;28;20207;-72
2021/01/01 04:54:32;;;;;;;8.90;8.00;;;;;;;0.34;100.00;96929.75;5010868;28;20861;-72
2021/01/01 04:57:00;;;;;;;9.40;8.50;;;;;;;0.29;100.00;96922.28;5005454;28;20930;-71
2021/01/01 04:59:27;;;;;;;8.90;8.10;;;;;;;0.19;100.00;96929.22;5008964;28;20235;-71
2021/01/01 05:01:54;;;;;;;8.90;8.20;;;;;;;0.23;100.00;96928.00;5010897;28;20212;-71
2021/01/01 05:04:21;;;;;;;10.10;9.00;;;;;;;0.19;100.00;96930.06;5016581;28;20609;-72
2021/01/01 05:06:48;;;;;;;9.27;8.37;;;;;;;0.11;100.00;96943.69;5017979;28;20256;-71
2021/01/01 05:09:15;;;;;;;9.43;8.53;;;;;;;0.14;100.00;96946.06;5012888;28;20241;-72
2021/01/01 05:11:42;;;;;;;9.33;8.53;;;;;;;0.20;100.00;96938.69;5014470;28;20207;-71
2021/01/01 05:14:10;;;;;;;9.63;8.73;;;;;;;0.26;100.00;96948.59;5013554;28;20211;-72
2021/01/01 05:16:37;;;;;;;10.67;9.60;;;;;;;0.19;100.00;96953.50;5020163;28;20212;-71
2021/01/01 05:19:11;;;;;;;8.93;8.13;;;;;;;0.04;100.00;96947.75;5012088;28;20221;-71
2021/01/01 05:21:38;;;;;;;8.77;7.97;;;;;;;0.08;100.00;96945.72;5013188;28;20207;-70
2021/01/01 05:24:07;;;;;;;11.43;9.90;;;;;;;-0.10;100.00;96948.00;5016285;28;20230;-72
2021/01/01 05:26:34;;;;;;;9.00;8.13;;;;;;;-0.27;100.00;96952.81;5012230;28;20632;-70
2021/01/01 05:29:05;;;;;;;9.50;8.50;;;;;;;-0.21;100.00;96951.47;5016800;28;20216;-71
2021/01/01 05:31:38;;;;;;;10.23;9.23;;;;;;;-0.23;100.00;96958.56;5017134;28;20644;-71
2021/01/01 05:34:06;;;;;;;8.73;7.97;;;;;;;-0.10;100.00;96956.66;5014911;28;20216;-71
2021/01/01 05:36:36;;;;;;;9.70;8.80;;;;;;;-0.18;100.00;96959.06;5016478;28;20213;-71
2021/01/01 05:39:07;;;;;;;8.90;8.20;;;;;;;0.02;100.00;96956.63;5028940;28;20285;-70
2021/01/01 05:41:38;;;;;;;9.93;9.07;;;;;;;-0.05;100.00;96962.34;5033469;28;20207;-71
2021/01/01 05:44:13;;;;;;;10.30;9.30;;;;;;;-0.09;100.00;96960.09;5037069;28;20265;-70
2021/01/01 05:46:56;;;;;;;8.97;8.17;;;;;;;-0.20;100.00;96972.19;5042677;28;20226;-71
2021/01/01 05:49:28;;;;;;;11.33;9.87;;;;;;;-0.15;100.00;96971.84;5034320;28;20239;-72
2021/01/01 05:52:12;;;;;;;9.93;8.97;;;;;;;-0.09;100.00;96979.16;5043491;28;20208;-72
2021/01/01 05:54:40;;;;;;;10.23;8.93;;;;;;;-0.08;100.00;96978.22;5046032;28;20721;-71
2021/01/01 05:57:08;;;;;;;10.27;9.27;;;;;;;-0.11;100.00;96972.41;5044331;28;20199;-72
2021/01/01 05:59:37;;;;;;;10.77;9.67;;;;;;;-0.12;100.00;96970.75;5033332;28;20224;-72
2021/01/01 06:02:05;;;;;;;9.87;8.97;;;;;;;-0.26;100.00;96972.69;5028976;28;20212;-72
2021/01/01 06:04:33;;;;;;;11.10;10.00;;;;;;;-0.26;100.00;96985.69;5044754;28;20210;-71
2021/01/01 06:07:02;;;;;;;10.07;9.17;;;;;;;-0.25;100.00;96978.69;5045242;28;20222;-72
2021/01/01 06:09:30;;;;;;;9.80;8.97;;;;;;;-0.42;100.00;96993.03;5037588;28;20224;-73
2021/01/01 06:11:59;;;;;;;10.90;9.73;;;;;;;-0.30;100.00;96992.91;5043908;28;20207;-71
2021/01/01 06:14:31;;;;;;;10.67;9.67;;;;;;;-0.19;100.00;96996.44;5041376;28;20208;-71
2021/01/01 06:17:20;;;;;;;11.00;9.77;;;;;;;-0.25;100.00;96997.78;5033030;28;20208;-70
2021/01/01 06:19:49;;;;;;;10.27;9.30;;;;;;;-0.18;100.00;96998.94;5030301;28;20227;-71
2021/01/01 06:22:17;;;;;;;11.53;10.47;;;;;;;-0.26;100.00;97003.09;5037485;28;20210;-72
2021/01/01 06:24:47;;;;;;;10.83;9.70;;;;;;;-0.30;100.00;97005.13;5031948;28;20704;-72
2021/01/01 06:27:15;;;;;;;10.97;9.87;;;;;;;-0.33;100.00;96997.56;5041510;28;20233;-71
2021/01/01 06:29:44;;;;;;;11.43;10.33;;;;;;;-0.45;100.00;97009.75;5035116;28;20241;-71
2021/01/01 06:32:11;;;;;;;12.27;10.97;;;;;;;-0.41;100.00;97011.16;5035212;28;20242;-71
2021/01/01 06:34:39;;;;;;;10.77;9.67;;;;;;;-0.33;100.00;97011.38;5038984;28;20726;-71
2021/01/01 06:37:06;;;;;;;12.13;10.03;;;;;;;-0.30;100.00;97016.34;5041394;28;20207;-72
2021/01/01 06:39:38;;;;;;;11.70;10.50;;;;;;;-0.49;100.00;97016.94;5037433;28;20230;-71
2021/01/01 06:42:05;;;;;;;12.13;10.90;;;;;;;-0.53;100.00;97017.31;5040361;28;20214;-71
2021/01/01 06:44:37;;;;;;;12.10;11.00;;;;;;;-0.62;100.00;97011.03;5035829;28;20295;-70
2021/01/01 06:47:06;;;;;;;12.47;11.20;;;;;;;-0.62;100.00;97017.06;5041514;28;20999;-72
2021/01/01 06:49:35;;;;;;;11.20;10.13;;;;;;;-0.41;100.00;97018.13;5037744;28;20228;-69
2021/01/01 06:52:17;;;;;;;12.47;11.17;;;;;;;-0.26;100.00;97019.56;5040094;28;20203;-69
2021/01/01 06:54:53;;;;;;;11.70;10.60;;;;;;;-0.43;100.00;97020.88;5037114;28;20227;-68
2021/01/01 06:57:23;;;;;;;13.03;11.73;;;;;;;-0.41;100.00;97024.19;5031489;28;20222;-71
2021/01/01 06:59:51;;;;;;;12.13;10.70;;;;;;;-0.45;100.00;97020.16;5035323;28;20227;-70
2021/01/01 07:02:21;;;;;;;12.13;10.93;;;;;;;-0.46;100.00;97021.91;5038238;28;20212;-71
2021/01/01 07:04:48;;;;;;;11.77;10.67;;;;;;;-0.53;100.00;97019.94;5032343;28;20204;-72
2021/01/01 07:07:41;;;;;;;12.83;11.47;;;;;;;-0.62;100.00;97017.06;5030846;28;20224;-71
2021/01/01 07:10:13;;;;;;;10.93;9.83;;;;;;;-0.60;100.00;97022.97;5043317;28;20249;-70
2021/01/01 07:12:40;;;;;;;12.27;11.00;;;;;;;-0.57;100.00;97024.53;5039573;28;20203;-69
2021/01/01 07:15:33;;;;;;;12.77;11.10;;;;;;;-0.47;100.00;97027.25;5042896;28;20230;-71
2021/01/01 07:18:00;;;;;;;12.03;10.93;;;;;;;-0.51;100.00;97031.84;5043276;28;20206;-72
2021/01/01 07:20:28;;;;;;;13.30;12.00;;;;;;;-0.55;100.00;97030.44;5045377;28;20288;-72
2021/01/01 07:22:59;;;;;;;12.37;11.03;;;;;;;-0.56;100.00;97026.19;5039011;28;20209;-70
2021/01/01 07:25:36;;;;;;;12.60;11.30;;;;;;;-0.54;100.00;97026.88;5037603;28;20208;-71
2021/01/01 07:28:07;;;;;;;12.10;10.87;;;;;;;-0.50;100.00;97032.69;5044381;28;20207;-71
2021/01/01 07:30:35;;;;;;;13.23;11.93;;;;;;;-0.51;100.00;97036.25;5036073;28;20228;-70
2021/01/01 07:33:03;;;;;;;16.77;10.87;;;;;;;-0.49;100.00;97044.78;5045238;28;20195;-70
2021/01/01 07:35:31;;;;;;;13.87;12.47;;;;;;;-0.33;100.00;97047.03;5045430;28;20239;-70
2021/01/01 07:37:59;;;;;;;14.20;11.80;;;;;;;-0.30;100.00;97046.78;5037579;28;20203;-70
2021/01/01 07:40:26;;;;;;;14.20;12.10;;;;;;;-0.11;100.00;97051.38;5039468;28;20240;-70
2021/01/01 07:42:53;;;;;;;14.57;13.07;;;;;;;-0.08;100.00;97060.72;5035503;28;20204;-70
2021/01/01 07:45:21;;;;;;;15.97;14.27;;;;;;;-0.07;100.00;97057.16;5044640;28;20215;-70
2021/01/01 07:47:48;;;;;;;16.90;15.10;;;;;;;-0.15;100.00;97056.00;5035452;28;20231;-70
2021/01/01 07:50:16;;;;;;;16.07;14.57;;;;;;;-0.02;100.00;97062.84;5038650;28;20310;-70
2021/01/01 07:52:43;;;;;;;16.77;14.70;;;;;;;0.06;100.00;97060.47;5038201;28;20212;-70
2021/01/01 07:55:19;;;;;;;15.33;13.77;;;;;;;0.09;100.00;97062.00;5036033;28;20644;-70
2021/01/01 07:57:46;;;;;;;14.97;13.47;;;;;;;-0.03;100.00;97069.84;5029746;28;20196;-70
2021/01/01 08:00:15;;;;;;;14.63;13.20;;;;;;;-0.06;100.00;97071.84;5025948;28;20242;-71
2021/01/01 08:02:42;;;;;;;14.30;12.97;;;;;;;-0.07;100.00;97075.41;5037076;28;20212;-70
2021/01/01 08:05:14;;;;;;;14.70;13.20;;;;;;;-0.02;100.00;97081.91;5038612;28;20205;-70
2021/01/01 08:07:41;;;;;;;14.37;12.93;;;;;;;-0.07;100.00;97075.41;5036708;28;20234;-70
2021/01/01 08:10:08;;;;;;;14.90;13.33;;;;;;;-0.02;100.00;97074.09;5042583;28;20222;-69
2021/01/01 08:12:37;;;;;;;14.53;13.03;;;;;;;0.12;100.00;97075.63;5034807;28;20209;-67
2021/01/01 08:15:05;;;;;;;28.50;24.80;;;;;;;0.05;100.00;97079.66;5027915;28;20234;-70
2021/01/01 08:17:32;;;;;;;21.93;18.50;;;;;;;0.11;100.00;97087.00;5032751;28;20207;-70
2021/01/01 08:19:59;;;;;;;15.57;12.83;;;;;;;0.25;100.00;97088.50;5034039;28;20239;-70
2021/01/01 08:22:28;;;;;;;13.50;12.17;;;;;;;0.18;100.00;97086.50;5039141;28;20310;-70
2021/01/01 08:24:56;;;;;;;17.07;14.23;;;;;;;0.14;100.00;97094.56;5039944;28;20199;-70
2021/01/01 08:27:23;;;;;;;16.03;14.53;;;;;;;0.18;100.00;97108.16;5032857;28;20234;-70
2021/01/01 08:29:52;;;;;;;17.47;14.50;;;;;;;0.19;100.00;97111.63;5035726;28;20234;-70
2021/01/01 08:32:19;;;;;;;14.03;12.67;;;;;;;0.23;100.00;97115.63;5040323;28;20216;-71
2021/01/01 08:34:49;;;;;;;14.20;12.80;;;;;;;0.18;100.00;97109.97;5037535;28;20200;-70
2021/01/01 08:37:20;;;;;;;15.03;12.97;;;;;;;0.32;100.00;97111.47;5033868;28;20223;-69
2021/01/01 08:39:47;;;;;;;15.33;13.77;;;;;;;0.24;100.00;97120.75;5032647;28;20219;-70
2021/01/01 08:42:21;;;;;;;16.43;14.70;;;;;;;0.15;100.00;97126.66;5033506;28;20216;-70
2021/01/01 08:44:57;;;;;;;16.33;13.77;;;;;;;0.27;100.00;97136.13;5029152;28;20715;-70
2021/01/01 08:47:36;;;;;;;18.00;15.60;;;;;;;0.35;100.00;97125.09;5036074;28;20239;-70
2021/01/01 08:50:04;;;;;;;18.83;16.93;;;;;;;0.35;100.00;97134.69;5036875;28;20620;-70
2021/01/01 08:52:32;;;;;;;20.03;17.50;;;;;;;0.36;100.00;97145.00;5042958;28;20211;-71
2021/01/01 08:55:00;;;;;;;17.90;15.63;;;;;;;0.44;100.00;97144.38;5044470;28;20202;-69
2021/01/01 08:57:27;;;;;;;19.07;16.27;;;;;;;0.36;100.00;97146.78;5041783;28;20200;-70
2021/01/01 09:00:01;;;;;;;19.13;17.27;;;;;;;0.36;100.00;97146.78;5047836;28;20220;-70
2021/01/01 09:02:29;;;;;;;20.90;18.73;;;;;;;0.51;100.00;97148.16;5037993;28;20212;-70
2021/01/01 09:05:00;;;;;;;19.90;17.77;;;;;;;0.41;100.00;97158.50;5040721;28;20204;-71
2021/01/01 09:07:27;;;;;;;22.43;19.53;;;;;;;0.45;100.00;97153.88;5041374;28;20594;-71
2021/01/01 09:09:54;;;;;;;22.50;20.20;;;;;;;0.32;100.00;97145.38;5048639;28;20243;-70
2021/01/01 09:12:23;;;;;;;23.50;21.07;;;;;;;0.39;100.00;97146.53;5036829;28;20219;-70
2021/01/01 09:14:51;;;;;;;23.07;20.77;;;;;;;0.45;100.00;97151.25;5041726;28;20561;-70
2021/01/01 09:17:23;;;;;;;24.40;21.90;;;;;;;0.42;100.00;97151.50;5043343;28;20215;-70
2021/01/01 09:20:00;;;;;;;23.10;21.00;;;;;;;0.33;100.00;97147.03;5038793;28;20288;-70
2021/01/01 09:22:31;;;;;;;21.63;19.60;;;;;;;0.39;100.00;97144.78;5030274;28;20218;-70
2021/01/01 09:25:17;;;;;;;19.17;16.23;;;;;;;0.65;100.00;97148.88;5041486;28;20204;-70
2021/01/01 09:27:46;;;;;;;19.73;17.83;;;;;;;0.75;100.00;97155.00;5042219;28;20251;-70
2021/01/01 09:30:15;;;;;;;19.60;17.50;;;;;;;0.71;100.00;97141.34;5044106;28;20254;-70
2021/01/01 09:32:44;;;;;;;16.20;14.60;;;;;;;0.83;100.00;97149.97;5039677;28;20196;-70
2021/01/01 09:35:13;;;;;;;18.97;17.07;;;;;;;0.63;100.00;97146.38;5037089;28;20208;-71
2021/01/01 09:37:48;;;;;;;18.63;16.67;;;;;;;0.92;100.00;97147.56;5036385;28;20203;-70
2021/01/01 09:40:16;;;;;;;16.10;14.53;;;;;;;0.80;100.00;97150.22;5042929;28;21363;-70
2021/01/01 09:42:43;;;;;;;18.83;16.93;;;;;;;0.82;100.00;97152.72;5040697;28;20204;-70
2021/01/01 09:45:11;;;;;;;17.90;16.07;;;;;;;0.93;100.00;97157.06;5044659;28;20211;-70
2021/01/01 09:47:38;;;;;;;17.77;16.07;;;;;;;1.05;100.00;97163.06;5041881;28;20909;-70
2021/01/01 09:50:07;;;;;;;17.57;15.77;;;;;;;1.13;100.00;97171.94;5035947;28;20237;-70
2021/01/01 09:52:35;;;;;;;17.70;15.90;;;;;;;1.20;100.00;97172.28;5045130;28;20734;-70
2021/01/01 09:55:02;;;;;;;18.90;17.00;;;;;;;1.23;100.00;97177.25;5040813;28;20211;-71
2021/01/01 09:57:30;;;;;;;18.17;16.37;;;;;;;1.26;100.00;97182.22;5028791;28;20208;-71
2021/01/01 09:59:57;;;;;;;17.17;15.37;;;;;;;1.24;100.00;97178.06;5041453;28;20693;-71
2021/01/01 10:02:27;;;;;;;20.10;15.83;;;;;;;1.24;100.00;97167.63;5037914;28;20298;-71
2021/01/01 10:04:54;;;;;;;18.10;16.27;;;;;;;1.36;100.00;97173.63;5045852;28;20214;-70
2021/01/01 10:07:22;;;;;;;18.17;16.07;;;;;;;1.41;100.00;97169.69;5038418;28;20743;-70
2021/01/01 10:09:49;;;;;;;19.13;16.17;;;;;;;1.38;100.00;97166.50;5040600;28;20234;-70
2021/01/01 10:12:18;;;;;;;19.17;17.17;;;;;;;1.47;100.00;97172.75;5042892;28;20211;-70
2021/01/01 10:14:46;;;;;;;17.43;15.73;;;;;;;1.51;100.00;97181.97;5038275;28;20281;-70
2021/01/01 10:17:13;;;;;;;18.20;16.37;;;;;;;1.58;100.00;97183.97;5036731;28;20195;-70
2021/01/01 10:19:40;;;;;;;18.43;16.60;;;;;;;1.42;100.00;97170.50;5035735;28;20223;-70
2021/01/01 10:22:07;;;;;;;16.63;15.03;;;;;;;1.63;100.00;97174.91;5033518;28;20206;-71
2021/01/01 10:24:35;;;;;;;16.23;14.60;;;;;;;1.87;100.00;97170.22;5044776;28;20207;-70
2021/01/01 10:27:02;;;;;;;16.90;15.07;;;;;;;1.66;100.00;97177.28;5043837;28;20235;-68
2021/01/01 10:29:30;;;;;;;17.97;16.17;;;;;;;1.70;100.00;97174.25;5037877;28;20252;-70
2021/01/01 10:32:02;;;;;;;17.50;15.60;;;;;;;1.68;100.00;97170.13;5038209;28;20203;-71
2021/01/01 10:34:29;;;;;;;17.50;15.73;;;;;;;1.67;100.00;97181.53;5036666;28;20672;-69
2021/01/01 10:36:56;;;;;;;17.40;15.77;;;;;;;1.88;100.00;97177.09;5041705;28;20206;-69
2021/01/01 10:39:23;;;;;;;17.37;15.70;;;;;;;1.75;100.00;97180.91;5043811;28;20232;-70
2021/01/01 10:41:51;;;;;;;17.70;15.90;;;;;;;2.06;100.00;97173.91;5043317;28;20203;-69
2021/01/01 10:44:18;;;;;;;16.33;14.60;;;;;;;1.83;100.00;97170.63;5044701;28;20220;-69
2021/01/01 10:46:49;;;;;;;17.03;15.33;;;;;;;1.70;100.00;97170.84;5044770;28;20196;-69
2021/01/01 10:49:16;;;;;;;17.73;15.93;;;;;;;2.11;100.00;97173.53;5046055;28;20227;-65
2021/01/01 10:51:43;;;;;;;17.83;16.03;;;;;;;2.17;100.00;97179.03;5045552;28;20214;-67
2021/01/01 10:54:10;;;;;;;18.37;15.77;;;;;;;2.43;100.00;97164.69;5037155;28;20243;-66
2021/01/01 10:56:37;;;;;;;17.13;15.50;;;;;;;2.25;100.00;97172.31;5035488;28;20215;-69
2021/01/01 10:59:21;;;;;;;18.03;16.13;;;;;;;2.35;100.00;97161.91;5026294;28;20223;-69
2021/01/01 11:01:48;;;;;;;27.73;25.03;;;;;;;2.39;100.00;97163.28;5036390;28;20219;-69
2021/01/01 11:04:15;;;;;;;21.27;18.73;;;;;;;2.34;100.00;97162.88;5036333;28;20274;-70
2021/01/01 11:06:43;;;;;;;18.27;16.43;;;;;;;2.39;100.00;97163.28;5037113;28;20832;-69
2021/01/01 11:09:10;;;;;;;17.33;15.60;;;;;;;2.48;100.00;97156.44;5043356;28;20230;-70
2021/01/01 11:11:37;;;;;;;16.20;14.50;;;;;;;2.35;100.00;97165.38;5043118;28;20695;-69
2021/01/01 11:14:07;;;;;;;17.40;15.17;;;;;;;2.50;100.00;97157.97;5038183;28;20259;-70
2021/01/01 12:20:50;;;;;;;15.07;13.57;;;;;;;2.29;100.00;97130.09;5045169;28;20226;-70
2021/01/01 12:23:32;;;;;;;17.00;15.20;;;;;;;2.28;100.00;97131.06;5038709;28;20222;-70
2021/01/01 12:25:59;;;;;;;16.63;14.97;;;;;;;2.46;100.00;97133.03;5043712;28;20972;-70
2021/01/01 12:28:26;;;;;;;16.90;15.23;;;;;;;2.37;100.00;97133.84;5054041;28;20919;-70
2021/01/01 12:30:54;;;;;;;16.67;14.97;;;;;;;2.34;100.00;97134.09;5034003;28;20210;-70